Time;durP1;ratioP1;P1;durP2;ratioP2;P2;SDS_P1;SDS_P2;PMS_P1;PMS_P2;Temp;Humidity;BMP_temperature;BMP_pressure;BME280_temperature;BME280_humidity;BME280_pressure;Samples;Min_cycle;Max_cycle;Signal;HPM_P1;HPM_P2
2021/11/07 00:02:00;;;;;;;;;;;9.00;99.90;;;;;;5001356;28;19933;-78
2021/11/07 00:04:35;;;;;;;;;;;8.90;99.90;;;;;;4997894;28;19932;-78
2021/11/07 00:07:12;;;;;;;;;;;8.90;99.90;;;;;;5006197;28;19984;-78
2021/11/07 00:09:43;;;;;;;;;;;8.90;99.90;;;;;;5005805;28;19932;-78
2021/11/07 00:12:15;;;;;;;;;;;8.90;99.90;;;;;;4999213;28;19925;-78
2021/11/07 00:14:46;;;;;;;;;;;8.90;99.90;;;;;;5009270;28;19987;-78
2021/11/07 00:17:14;;;;;;;;;;;8.90;99.90;;;;;;5012298;28;19973;-79
2021/11/07 00:19:44;;;;;;;;;;;8.90;99.90;;;;;;4998511;28;20321;-77
2021/11/07 00:22:14;;;;;;;;;;;8.90;99.90;;;;;;5000900;28;19932;-77
2021/11/07 00:24:45;;;;;;;;;;;8.90;99.90;;;;;;5003688;28;20386;-78
2021/11/07 00:27:21;;;;;;;;;;;8.90;99.90;;;;;;5003821;28;19973;-77
2021/11/07 00:29:52;;;;;;;;;;;8.90;99.90;;;;;;5003715;28;19925;-78
2021/11/07 00:32:25;;;;;;;;;;;8.80;99.90;;;;;;5010890;28;19926;-79
2021/11/07 00:37:34;;;;;;;;;;;8.90;99.90;;;;;;5003498;28;19934;-77
2021/11/07 00:40:18;;;;;;;;;;;8.90;99.90;;;;;;4996414;28;19934;-77
2021/11/07 00:42:51;;;;;;;;;;;8.90;99.90;;;;;;4994467;28;19972;-77
2021/11/07 00:45:26;;;;;;;;;;;8.90;99.90;;;;;;4998999;28;19926;-79
2021/11/07 00:48:06;;;;;;;;;;;8.90;99.90;;;;;;4996030;28;19984;-78
2021/11/07 00:50:43;;;;;;;;;;;8.90;99.90;;;;;;5006587;28;19925;-79
2021/11/07 00:53:22;;;;;;;;;;;8.90;99.90;;;;;;5007259;28;19953;-78
2021/11/07 00:55:52;;;;;;;;;;;8.90;99.90;;;;;;5003766;28;19925;-78
2021/11/07 00:58:29;;;;;;;;;;;8.90;99.90;;;;;;5011417;28;19926;-77
2021/11/07 01:01:02;;;;;;;;;;;9.00;99.90;;;;;;5000380;28;19971;-76
2021/11/07 01:03:30;;;;;;;;;;;8.90;99.90;;;;;;5003226;28;19932;-76
2021/11/07 01:05:57;;;;;;;;;;;9.00;99.90;;;;;;5002134;28;20017;-78
2021/11/07 01:08:23;;;;;;;;;;;9.00;99.90;;;;;;5006838;28;19980;-76
2021/11/07 01:10:50;;;;;;;;;;;8.90;99.90;;;;;;5003575;28;20010;-76
2021/11/07 01:13:17;;;;;;;;;;;8.90;99.90;;;;;;4998350;28;20012;-77
2021/11/07 01:15:44;;;;;;;;;;;9.00;99.90;;;;;;5003321;28;19948;-75
2021/11/07 01:18:11;;;;;;;;;;;9.00;99.90;;;;;;4995719;28;19934;-77
2021/11/07 01:20:39;;;;;;;;;;;9.10;99.90;;;;;;4994396;28;20379;-76
2021/11/07 01:23:11;;;;;;;;;;;9.10;99.90;;;;;;5002676;28;19975;-76
2021/11/07 01:25:42;;;;;;;;;;;9.10;99.90;;;;;;5003199;28;19949;-78
2021/11/07 01:28:09;;;;;;;;;;;9.10;99.90;;;;;;5004771;28;19926;-77
2021/11/07 01:30:39;;;;;;;;;;;9.20;99.90;;;;;;4994628;28;19925;-77
2021/11/07 01:33:11;;;;;;;;;;;9.20;99.90;;;;;;4997283;28;19925;-76
2021/11/07 01:35:42;;;;;;;;;;;9.20;99.90;;;;;;4992293;28;19932;-76
2021/11/07 01:38:14;;;;;;;;;;;9.20;99.90;;;;;;4996862;28;19933;-78
2021/11/07 01:40:44;;;;;;;;;;;9.20;99.90;;;;;;5000253;28;19973;-77
2021/11/07 01:43:12;;;;;;;;;;;9.30;99.90;;;;;;4998687;28;19932;-77
2021/11/07 01:45:42;;;;;;;;;;;9.30;99.90;;;;;;4996921;28;19973;-77
2021/11/07 01:48:12;;;;;;;;;;;9.30;99.90;;;;;;4993008;28;19930;-77
2021/11/07 01:50:41;;;;;;;;;;;9.40;99.90;;;;;;4997485;28;19952;-77
2021/11/07 01:53:16;;;;;;;;;;;9.40;99.90;;;;;;4993276;28;19934;-76
2021/11/07 01:55:44;;;;;;;;;;;9.40;99.90;;;;;;4998255;28;20023;-77
2021/11/07 01:58:11;;;;;;;;;;;9.40;99.90;;;;;;4999246;28;19929;-78
2021/11/07 02:00:37;;;;;;;;;;;9.50;99.90;;;;;;4994563;28;20398;-77
2021/11/07 02:03:04;;;;;;;;;;;9.50;99.90;;;;;;4996081;28;19934;-78
2021/11/07 02:05:31;;;;;;;;;;;9.40;99.90;;;;;;4999849;28;19926;-78
2021/11/07 02:07:58;;;;;;;;;;;9.50;99.90;;;;;;4993925;28;20008;-77
2021/11/07 02:10:24;;;;;;;;;;;9.50;99.90;;;;;;4996120;28;19937;-77
2021/11/07 02:12:52;;;;;;;;;;;9.50;99.90;;;;;;5005000;28;19932;-77
2021/11/07 02:15:21;;;;;;;;;;;9.50;99.90;;;;;;4994790;28;19926;-77
2021/11/07 02:17:48;;;;;;;;;;;9.60;99.90;;;;;;5002277;28;19930;-77
2021/11/07 02:20:21;;;;;;;;;;;9.60;99.90;;;;;;4994095;28;19932;-79
2021/11/07 02:22:48;;;;;;;;;;;9.60;99.90;;;;;;5003818;28;19971;-78
2021/11/07 02:25:15;;;;;;;;;;;9.60;99.90;;;;;;4997212;28;19965;-77
2021/11/07 02:27:41;;;;;;;;;;;9.60;99.90;;;;;;5006495;28;19974;-76
2021/11/07 02:30:10;;;;;;;;;;;9.60;99.90;;;;;;5001258;28;19929;-76
2021/11/07 02:32:37;;;;;;;;;;;9.60;99.90;;;;;;4994632;28;19933;-77
2021/11/07 02:35:04;;;;;;;;;;;9.60;99.90;;;;;;4999548;28;20349;-76
2021/11/07 02:37:32;;;;;;;;;;;9.60;99.90;;;;;;5000254;28;19925;-78
2021/11/07 02:39:58;;;;;;;;;;;9.60;99.90;;;;;;5005870;28;19925;-76
2021/11/07 02:42:25;;;;;;;;;;;9.60;99.90;;;;;;5001153;28;19925;-77
2021/11/07 02:44:52;;;;;;;;;;;9.60;99.90;;;;;;5001871;28;19926;-77
2021/11/07 02:47:19;;;;;;;;;;;9.70;99.90;;;;;;5003671;28;20012;-77
2021/11/07 02:49:46;;;;;;;;;;;9.70;99.90;;;;;;4996287;28;19973;-77
2021/11/07 02:52:14;;;;;;;;;;;9.70;99.90;;;;;;4997114;28;19929;-76
2021/11/07 02:54:42;;;;;;;;;;;9.70;99.90;;;;;;5014824;28;20016;-76
2021/11/07 02:57:10;;;;;;;;;;;9.60;99.90;;;;;;5009506;28;19973;-76
2021/11/07 02:59:39;;;;;;;;;;;9.60;99.90;;;;;;5011725;28;19932;-78
2021/11/07 03:02:06;;;;;;;;;;;9.70;99.90;;;;;;5011547;28;19925;-76
2021/11/07 03:04:34;;;;;;;;;;;9.70;99.90;;;;;;5003259;28;20021;-77
2021/11/07 03:07:01;;;;;;;;;;;9.70;99.90;;;;;;4999208;28;19926;-77
2021/11/07 03:09:28;;;;;;;;;;;9.70;99.90;;;;;;5011441;28;20370;-76
2021/11/07 03:11:57;;;;;;;;;;;9.70;99.90;;;;;;4999132;28;19925;-77
2021/11/07 03:14:24;;;;;;;;;;;9.80;99.90;;;;;;5005312;28;20036;-76
2021/11/07 03:16:51;;;;;;;;;;;9.80;99.90;;;;;;4999036;28;19926;-76
2021/11/07 03:19:20;;;;;;;;;;;9.70;99.90;;;;;;5004107;28;19932;-76
2021/11/07 03:21:47;;;;;;;;;;;9.80;99.90;;;;;;5002719;28;19926;-76
2021/11/07 03:24:16;;;;;;;;;;;9.80;99.90;;;;;;5002386;28;19926;-76
2021/11/07 03:26:43;;;;;;;;;;;9.70;99.90;;;;;;5004617;28;19933;-76
2021/11/07 03:29:12;;;;;;;;;;;9.80;99.90;;;;;;4997661;28;19953;-76
2021/11/07 03:31:46;;;;;;;;;;;9.80;99.90;;;;;;5001184;28;20353;-76
2021/11/07 03:34:17;;;;;;;;;;;9.80;99.90;;;;;;5000427;28;19933;-76
2021/11/07 03:36:46;;;;;;;;;;;9.80;99.90;;;;;;5004703;28;20752;-76
2021/11/07 03:39:13;;;;;;;;;;;9.80;99.90;;;;;;5004009;28;19925;-77
2021/11/07 03:41:41;;;;;;;;;;;9.80;99.90;;;;;;5004131;28;19968;-76
2021/11/07 03:44:08;;;;;;;;;;;9.80;99.90;;;;;;4996115;28;19930;-77
2021/11/07 03:46:36;;;;;;;;;;;9.80;99.90;;;;;;5001387;28;19948;-77
2021/11/07 03:49:03;;;;;;;;;;;9.80;99.90;;;;;;4998452;28;19948;-77
2021/11/07 03:51:30;;;;;;;;;;;9.90;99.90;;;;;;5005113;28;19938;-77
2021/11/07 03:53:58;;;;;;;;;;;9.90;99.90;;;;;;5001991;28;20330;-78
2021/11/07 03:56:25;;;;;;;;;;;9.90;99.90;;;;;;4997255;28;20016;-77
2021/11/07 03:58:51;;;;;;;;;;;9.80;99.90;;;;;;4995187;28;19984;-77
2021/11/07 04:01:18;;;;;;;;;;;9.90;99.90;;;;;;5003361;28;19926;-77
2021/11/07 04:03:46;;;;;;;;;;;9.90;99.90;;;;;;5000752;28;19929;-77
2021/11/07 04:06:13;;;;;;;;;;;9.90;99.90;;;;;;4998501;28;19926;-77
2021/11/07 04:08:40;;;;;;;;;;;9.90;99.90;;;;;;5002266;28;20375;-76
2021/11/07 04:11:07;;;;;;;;;;;9.90;99.90;;;;;;4997527;28;19925;-77
2021/11/07 04:13:37;;;;;;;;;;;10.00;99.90;;;;;;5006756;28;19930;-77
2021/11/07 04:16:03;;;;;;;;;;;9.90;99.90;;;;;;5008015;28;20008;-77
2021/11/07 04:18:30;;;;;;;;;;;9.90;99.90;;;;;;5003188;28;22588;-77
2021/11/07 04:20:58;;;;;;;;;;;9.90;99.90;;;;;;5001739;28;19948;-76
2021/11/07 04:23:25;;;;;;;;;;;9.90;99.90;;;;;;5000020;28;19925;-78
2021/11/07 04:25:51;;;;;;;;;;;9.90;99.90;;;;;;4995368;28;20313;-77
2021/11/07 04:28:18;;;;;;;;;;;9.90;99.90;;;;;;5005963;28;20441;-76
2021/11/07 04:30:45;;;;;;;;;;;9.90;99.90;;;;;;5001362;28;20346;-77
2021/11/07 04:33:11;;;;;;;;;;;9.90;99.90;;;;;;5005094;28;19932;-77
2021/11/07 04:35:38;;;;;;;;;;;9.90;99.90;;;;;;5006948;28;20024;-77
2021/11/07 04:38:06;;;;;;;;;;;9.80;99.90;;;;;;4995179;28;19936;-76
2021/11/07 04:40:33;;;;;;;;;;;9.90;99.90;;;;;;4999544;28;19992;-76
2021/11/07 04:43:00;;;;;;;;;;;9.90;99.90;;;;;;5002316;28;20020;-77
2021/11/07 04:45:26;;;;;;;;;;;9.90;99.90;;;;;;4998425;28;19926;-77
2021/11/07 04:47:54;;;;;;;;;;;9.90;99.90;;;;;;5011390;28;19932;-76
2021/11/07 04:50:21;;;;;;;;;;;9.90;99.90;;;;;;5004065;28;20368;-76
2021/11/07 04:52:48;;;;;;;;;;;9.90;99.90;;;;;;5003577;28;20048;-76
2021/11/07 04:55:16;;;;;;;;;;;9.90;99.90;;;;;;5007972;28;19925;-76
2021/11/07 04:57:43;;;;;;;;;;;9.80;99.90;;;;;;4996813;28;19926;-77
2021/11/07 05:00:11;;;;;;;;;;;9.80;99.90;;;;;;4998402;28;19964;-78
2021/11/07 05:02:38;;;;;;;;;;;9.80;99.90;;;;;;4997629;28;20029;-77
2021/11/07 05:05:05;;;;;;;;;;;9.80;99.90;;;;;;5012714;28;19987;-76
2021/11/07 05:07:32;;;;;;;;;;;9.80;99.90;;;;;;5007866;28;20297;-76
2021/11/07 05:09:59;;;;;;;;;;;9.80;99.90;;;;;;4997025;28;19934;-77
2021/11/07 05:12:28;;;;;;;;;;;9.90;99.90;;;;;;5003599;28;20541;-77
2021/11/07 05:14:55;;;;;;;;;;;9.90;99.90;;;;;;5004254;28;19932;-77
2021/11/07 05:17:21;;;;;;;;;;;9.90;99.90;;;;;;5000204;28;20275;-77
2021/11/07 05:19:48;;;;;;;;;;;9.90;99.90;;;;;;5006453;28;20553;-77
2021/11/07 05:22:15;;;;;;;;;;;10.00;99.90;;;;;;5001012;28;20020;-77
2021/11/07 05:24:42;;;;;;;;;;;10.00;99.90;;;;;;5003403;28;19925;-78
2021/11/07 05:27:08;;;;;;;;;;;10.00;99.90;;;;;;4996599;28;19926;-76
2021/11/07 05:29:36;;;;;;;;;;;10.10;99.90;;;;;;5001994;28;19925;-77
2021/11/07 05:32:04;;;;;;;;;;;10.10;99.90;;;;;;5001226;28;19925;-77
2021/11/07 05:34:31;;;;;;;;;;;10.10;99.90;;;;;;4996167;28;20004;-76
2021/11/07 05:36:58;;;;;;;;;;;10.20;99.90;;;;;;4996479;28;19936;-76
2021/11/07 05:39:25;;;;;;;;;;;10.20;99.90;;;;;;4998810;28;20385;-77
2021/11/07 05:41:52;;;;;;;;;;;10.20;99.90;;;;;;5001012;28;19934;-76
2021/11/07 05:44:18;;;;;;;;;;;10.20;99.90;;;;;;4993650;28;20020;-79
2021/11/07 05:46:47;;;;;;;;;;;10.30;99.90;;;;;;4997433;28;19948;-76
2021/11/07 05:49:13;;;;;;;;;;;10.30;99.90;;;;;;4999936;28;20605;-76
2021/11/07 05:51:40;;;;;;;;;;;10.40;99.90;;;;;;4996501;28;20404;-77
2021/11/07 05:54:07;;;;;;;;;;;10.40;99.90;;;;;;4996577;28;19934;-76
2021/11/07 05:56:34;;;;;;;;;;;10.40;99.90;;;;;;5000590;28;19925;-76
2021/11/07 05:59:00;;;;;;;;;;;10.40;99.90;;;;;;4997446;28;19957;-76
2021/11/07 06:01:27;;;;;;;;;;;10.40;99.90;;;;;;4995208;28;19926;-76
2021/11/07 06:03:56;;;;;;;;;;;10.40;99.90;;;;;;4997907;28;20027;-78
2021/11/07 06:06:22;;;;;;;;;;;10.40;99.90;;;;;;4998271;28;19932;-77
2021/11/07 06:08:49;;;;;;;;;;;10.40;99.90;;;;;;5000094;28;19934;-76
2021/11/07 06:11:16;;;;;;;;;;;10.40;99.90;;;;;;5001888;28;19937;-76
2021/11/07 06:13:42;;;;;;;;;;;10.30;99.90;;;;;;4993059;28;19926;-77
2021/11/07 06:16:09;;;;;;;;;;;10.30;99.90;;;;;;4998822;28;19930;-76
2021/11/07 06:18:36;;;;;;;;;;;10.40;99.90;;;;;;4990646;28;19943;-77
2021/11/07 06:21:04;;;;;;;;;;;10.30;99.90;;;;;;4991318;28;20281;-77
2021/11/07 06:23:32;;;;;;;;;;;10.30;99.90;;;;;;5000304;28;19926;-78
2021/11/07 06:26:00;;;;;;;;;;;10.30;99.90;;;;;;4999754;28;20015;-78
2021/11/07 06:28:27;;;;;;;;;;;10.40;99.90;;;;;;5001915;28;19936;-78
2021/11/07 06:30:53;;;;;;;;;;;10.30;99.90;;;;;;4991833;28;19981;-77
2021/11/07 06:33:20;;;;;;;;;;;10.30;99.90;;;;;;4997679;28;19965;-77
2021/11/07 06:35:47;;;;;;;;;;;10.40;99.90;;;;;;4998706;28;20455;-79
2021/11/07 06:38:15;;;;;;;;;;;10.40;99.90;;;;;;5009755;28;19932;-78
2021/11/07 06:40:41;;;;;;;;;;;10.40;99.90;;;;;;5001782;28;19933;-76
2021/11/07 06:43:08;;;;;;;;;;;10.40;99.90;;;;;;5003219;28;20297;-77
2021/11/07 06:45:35;;;;;;;;;;;10.40;99.90;;;;;;5008439;28;20016;-76
2021/11/07 06:48:01;;;;;;;;;;;10.40;99.90;;;;;;5002382;28;19932;-76
2021/11/07 06:50:28;;;;;;;;;;;10.40;99.90;;;;;;5004728;28;20015;-77
2021/11/07 06:52:55;;;;;;;;;;;10.40;99.90;;;;;;5002139;28;19925;-79
2021/11/07 06:55:23;;;;;;;;;;;10.30;99.90;;;;;;5006397;28;19929;-77
2021/11/07 06:57:49;;;;;;;;;;;10.30;99.90;;;;;;4996725;28;19926;-77
2021/11/07 07:00:18;;;;;;;;;;;10.30;99.90;;;;;;5000989;28;19936;-78
2021/11/07 07:02:46;;;;;;;;;;;10.30;99.90;;;;;;4997825;28;20024;-77
2021/11/07 07:05:13;;;;;;;;;;;10.30;99.90;;;;;;4997760;28;19936;-78
2021/11/07 07:07:44;;;;;;;;;;;10.20;99.90;;;;;;4997598;28;19926;-77
2021/11/07 07:10:16;;;;;;;;;;;10.20;99.90;;;;;;4999350;28;20466;-76
2021/11/07 07:12:49;;;;;;;;;;;10.20;99.90;;;;;;5001189;28;19934;-80
2021/11/07 07:15:18;;;;;;;;;;;10.30;99.90;;;;;;4998486;28;19925;-77
2021/11/07 07:17:52;;;;;;;;;;;10.30;99.90;;;;;;5002447;28;20486;-78
2021/11/07 07:20:36;;;;;;;;;;;10.40;99.90;;;;;;4999238;28;19932;-79
2021/11/07 07:26:08;;;;;;;;;;;10.40;99.90;;;;;;4996367;28;19929;-78
2021/11/07 07:28:55;;;;;;;;;;;10.40;99.90;;;;;;5000646;28;19930;-77
2021/11/07 07:31:33;;;;;;;;;;;10.40;99.90;;;;;;4999673;28;19929;-81
2021/11/07 07:34:04;;;;;;;;;;;10.40;99.90;;;;;;5000450;28;19932;-81
2021/11/07 07:36:31;;;;;;;;;;;10.40;99.90;;;;;;4996713;28;19925;-80
2021/11/07 07:38:58;;;;;;;;;;;10.50;99.90;;;;;;5001105;28;20390;-83
2021/11/07 07:41:25;;;;;;;;;;;10.50;99.90;;;;;;5000630;28;19977;-81
2021/11/07 07:43:53;;;;;;;;;;;10.60;99.90;;;;;;5001060;28;20008;-78
2021/11/07 07:46:21;;;;;;;;;;;10.70;99.90;;;;;;5005034;28;19965;-84
2021/11/07 07:48:48;;;;;;;;;;;10.90;99.90;;;;;;5001898;28;20289;-79
2021/11/07 07:51:17;;;;;;;;;;;10.80;99.90;;;;;;5003733;28;19966;-82
2021/11/07 07:53:45;;;;;;;;;;;10.80;99.90;;;;;;4999933;28;20386;-81
2021/11/07 07:56:12;;;;;;;;;;;10.80;99.90;;;;;;5004329;28;20390;-78
2021/11/07 07:58:39;;;;;;;;;;;10.70;99.90;;;;;;4997050;28;19925;-78
2021/11/07 08:01:08;;;;;;;;;;;10.70;99.90;;;;;;4995799;28;20543;-78
2021/11/07 08:03:35;;;;;;;;;;;10.60;99.90;;;;;;4998000;28;19926;-78
2021/11/07 08:06:02;;;;;;;;;;;10.60;99.90;;;;;;4993896;28;19940;-77
2021/11/07 08:08:28;;;;;;;;;;;10.60;99.90;;;;;;4998976;28;19933;-80
2021/11/07 08:10:55;;;;;;;;;;;10.60;99.90;;;;;;4995578;28;19944;-78
2021/11/07 08:13:22;;;;;;;;;;;10.60;99.90;;;;;;4997505;28;19926;-78
2021/11/07 08:15:48;;;;;;;;;;;10.70;99.90;;;;;;4997884;28;20304;-82
2021/11/07 08:18:16;;;;;;;;;;;10.70;99.90;;;;;;4996920;28;20386;-78
2021/11/07 08:20:45;;;;;;;;;;;10.70;99.90;;;;;;4999174;28;20304;-77
2021/11/07 08:23:13;;;;;;;;;;;10.80;99.90;;;;;;4995686;28;19965;-78
2021/11/07 08:25:39;;;;;;;;;;;10.90;99.90;;;;;;5002127;28;19933;-79
2021/11/07 08:28:06;;;;;;;;;;;10.80;99.90;;;;;;4999015;28;20012;-78
2021/11/07 08:30:35;;;;;;;;;;;10.70;99.90;;;;;;4998591;28;19926;-79
2021/11/07 08:33:02;;;;;;;;;;;10.60;99.90;;;;;;4997370;28;19965;-80
2021/11/07 08:35:30;;;;;;;;;;;10.60;99.90;;;;;;4996328;28;19926;-79
2021/11/07 08:38:00;;;;;;;;;;;10.70;99.90;;;;;;4994814;28;20290;-79
2021/11/07 08:40:30;;;;;;;;;;;10.90;99.90;;;;;;4999831;28;20122;-81
2021/11/07 08:43:03;;;;;;;;;;;11.00;99.90;;;;;;4998802;28;19964;-79
2021/11/07 09:02:08;;;;;;;;;;;12.70;99.90;;;;;;4994305;28;19984;-81
2021/11/07 09:04:42;;;;;;;;;;;13.40;99.90;;;;;;4990717;28;20018;-79
2021/11/07 09:07:17;;;;;;;;;;;14.30;99.90;;;;;;4994283;28;20389;-79
2021/11/07 09:09:45;;;;;;;;;;;14.70;96.40;;;;;;4991958;28;20605;-78
2021/11/07 09:12:12;;;;;;;;;;;14.90;94.30;;;;;;4997291;28;19925;-78
2021/11/07 09:14:40;;;;;;;;;;;14.50;93.50;;;;;;4998870;28;20369;-79
2021/11/07 09:17:09;;;;;;;;;;;13.60;94.40;;;;;;4999025;28;19930;-75
2021/11/07 09:19:38;;;;;;;;;;;13.00;95.80;;;;;;4994663;28;19933;-80
2021/11/07 09:22:08;;;;;;;;;;;12.50;96.40;;;;;;5000051;28;19933;-82
2021/11/07 09:24:41;;;;;;;;;;;12.30;97.70;;;;;;4993801;28;19933;-79
2021/11/07 09:27:14;;;;;;;;;;;12.20;98.20;;;;;;4993993;28;20020;-77
2021/11/07 09:29:48;;;;;;;;;;;12.20;98.40;;;;;;4995116;28;20013;-82
2021/11/07 09:32:26;;;;;;;;;;;12.10;98.40;;;;;;4999618;28;19925;-76
2021/11/07 09:34:56;;;;;;;;;;;12.10;98.60;;;;;;4999724;28;19925;-78
2021/11/07 09:37:30;;;;;;;;;;;12.00;98.30;;;;;;4993775;28;20403;-79
2021/11/07 09:40:00;;;;;;;;;;;12.00;98.60;;;;;;4991786;28;20301;-78
2021/11/07 09:45:19;;;;;;;;;;;11.90;97.80;;;;;;4957414;28;19926;-82
2021/11/07 09:47:50;;;;;;;;;;;11.90;98.20;;;;;;4994944;28;20577;-78
2021/11/07 09:50:17;;;;;;;;;;;11.90;97.90;;;;;;4995883;28;20012;-78
2021/11/07 09:52:50;;;;;;;;;;;12.00;98.00;;;;;;4992939;28;19929;-73
2021/11/07 09:55:19;;;;;;;;;;;12.10;97.10;;;;;;4997237;28;19979;-79
2021/11/07 09:57:47;;;;;;;;;;;12.10;96.70;;;;;;4999280;28;19932;-79
2021/11/07 10:00:15;;;;;;;;;;;12.20;96.60;;;;;;4994677;28;19936;-78
2021/11/07 10:02:42;;;;;;;;;;;12.20;96.10;;;;;;5002751;28;19933;-84
2021/11/07 10:05:09;;;;;;;;;;;12.30;96.30;;;;;;5003830;28;19929;-80
2021/11/07 10:07:39;;;;;;;;;;;12.20;96.50;;;;;;4993181;28;19933;-82
2021/11/07 10:10:12;;;;;;;;;;;12.30;96.40;;;;;;5000112;28;20393;-83
2021/11/07 10:12:42;;;;;;;;;;;12.40;96.00;;;;;;5003687;28;19926;-79
2021/11/07 10:15:12;;;;;;;;;;;12.40;95.60;;;;;;4999771;28;19929;-79
2021/11/07 10:17:42;;;;;;;;;;;12.30;95.80;;;;;;4998510;28;19937;-77
2021/11/07 10:20:17;;;;;;;;;;;12.40;95.70;;;;;;5003675;28;19941;-78
2021/11/07 10:22:47;;;;;;;;;;;12.40;95.60;;;;;;4998088;28;19935;-82
2021/11/07 10:25:18;;;;;;;;;;;12.60;95.80;;;;;;4997325;28;19939;-86
2021/11/07 10:27:50;;;;;;;;;;;12.80;95.20;;;;;;5001967;28;19933;-88
2021/11/07 10:30:20;;;;;;;;;;;12.90;94.60;;;;;;5001628;28;19925;-76
2021/11/07 10:33:13;;;;;;;;;;;13.00;94.20;;;;;;4998065;28;19984;-76
2021/11/07 10:35:54;;;;;;;;;;;13.00;93.70;;;;;;5007729;28;20015;-77
2021/11/07 10:41:34;;;;;;;;;;;12.50;94.50;;;;;;5075514;27;19920;-82
2021/11/07 10:44:16;;;;;;;;;;;12.40;94.00;;;;;;5061012;28;20024;-82
2021/11/07 10:46:57;;;;;;;;;;;12.40;94.50;;;;;;5054929;28;20375;-80
2021/11/07 10:52:23;;;;;;;;;;;12.30;93.90;;;;;;5058359;28;19928;-78
2021/11/07 10:54:49;;;;;;;;;;;12.30;93.50;;;;;;5056291;28;19928;-80
2021/11/07 10:57:19;;;;;;;;;;;12.40;94.00;;;;;;5058111;28;19925;-76
2021/11/07 11:00:07;;;;;;;;;;;12.20;92.60;;;;;;5051298;28;19928;-76
2021/11/07 11:02:34;;;;;;;;;;;12.20;93.10;;;;;;5057434;28;19925;-79
2021/11/07 11:05:05;;;;;;;;;;;12.30;93.50;;;;;;5057822;28;19924;-76
2021/11/07 11:07:31;;;;;;;;;;;12.40;93.10;;;;;;5053140;28;20002;-81
2021/11/07 11:10:14;;;;;;;;;;;12.60;92.40;;;;;;5052337;28;20356;-78
2021/11/07 11:13:03;;;;;;;;;;;12.60;91.80;;;;;;5051322;28;19924;-77
2021/11/07 11:15:36;;;;;;;;;;;12.40;91.70;;;;;;5054881;28;19929;-77
2021/11/07 11:18:11;;;;;;;;;;;12.40;91.40;;;;;;5053304;28;19971;-75
2021/11/07 11:21:06;;;;;;;;;;;12.30;90.90;;;;;;5056705;28;20037;-75
2021/11/07 11:23:46;;;;;;;;;;;12.20;90.80;;;;;;5051650;28;20390;-74
2021/11/07 11:26:15;;;;;;;;;;;12.10;91.30;;;;;;5057527;28;19924;-74
2021/11/07 11:28:57;;;;;;;;;;;12.00;91.70;;;;;;5057153;28;19924;-76
2021/11/07 11:31:27;;;;;;;;;;;12.00;91.10;;;;;;5058989;28;19940;-76
2021/11/07 11:33:56;;;;;;;;;;;12.00;90.70;;;;;;5045694;28;19925;-75
2021/11/07 11:36:27;;;;;;;;;;;12.00;91.10;;;;;;5044957;28;19933;-75
2021/11/07 11:38:55;;;;;;;;;;;11.90;91.30;;;;;;5047692;28;19929;-76
2021/11/07 11:41:26;;;;;;;;;;;11.90;91.20;;;;;;5048960;28;19939;-79
2021/11/07 11:43:54;;;;;;;;;;;12.10;91.30;;;;;;5054548;28;19932;-81
2021/11/07 11:46:26;;;;;;;;;;;12.10;91.40;;;;;;5053695;28;19928;-78
2021/11/07 11:51:48;;;;;;;;;;;12.00;91.30;;;;;;5055649;28;20589;-78
2021/11/07 11:54:38;;;;;;;;;;;12.10;92.10;;;;;;5041031;28;20465;-82
2021/11/07 11:57:12;;;;;;;;;;;12.20;91.80;;;;;;5042870;28;19931;-78
2021/11/07 11:59:46;;;;;;;;;;;12.30;91.00;;;;;;5043734;28;20019;-78
2021/11/07 12:02:17;;;;;;;;;;;12.40;90.70;;;;;;5037634;28;20027;-76
2021/11/07 12:05:03;;;;;;;;;;;12.50;90.10;;;;;;5037010;28;20521;-75
2021/11/07 12:07:36;;;;;;;;;;;12.50;89.40;;;;;;5037476;28;20302;-78
2021/11/07 12:10:12;;;;;;;;;;;12.50;89.90;;;;;;5038614;28;19982;-76
2021/11/07 12:12:47;;;;;;;;;;;12.40;89.60;;;;;;5041482;28;19933;-76
2021/11/07 12:15:26;;;;;;;;;;;12.30;89.80;;;;;;5046623;28;20020;-74
2021/11/07 12:18:03;;;;;;;;;;;12.30;89.10;;;;;;5039153;28;19924;-75
2021/11/07 12:20:30;;;;;;;;;;;12.20;90.40;;;;;;5041992;28;19924;-78
2021/11/07 12:23:13;;;;;;;;;;;12.10;90.40;;;;;;5039990;28;19929;-76
2021/11/07 12:25:39;;;;;;;;;;;12.10;90.80;;;;;;5037442;28;19925;-76
2021/11/07 12:28:09;;;;;;;;;;;12.20;90.70;;;;;;5038646;28;19933;-77
2021/11/07 12:30:40;;;;;;;;;;;12.20;90.40;;;;;;5036126;28;19948;-76
2021/11/07 12:33:08;;;;;;;;;;;12.10;89.60;;;;;;5040803;28;19940;-76
2021/11/07 12:35:37;;;;;;;;;;;12.10;90.50;;;;;;5043744;28;19937;-78
2021/11/07 12:40:58;;;;;;;;;;;12.00;90.70;;;;;;5033678;28;19939;-77
2021/11/07 12:43:26;;;;;;;;;;;12.00;90.70;;;;;;5037065;28;20303;-77
2021/11/07 12:45:58;;;;;;;;;;;12.00;90.50;;;;;;5041392;28;19936;-76
2021/11/07 12:48:43;;;;;;;;;;;11.90;90.60;;;;;;5040385;28;19937;-76
2021/11/07 12:51:10;;;;;;;;;;;11.80;90.20;;;;;;5038490;28;20417;-77
2021/11/07 12:53:57;;;;;;;;;;;11.70;90.00;;;;;;5043316;28;19949;-76
2021/11/07 12:56:35;;;;;;;;;;;11.80;90.00;;;;;;5047240;28;19939;-76
2021/11/07 12:59:02;;;;;;;;;;;11.90;90.10;;;;;;5037475;28;19951;-76
2021/11/07 13:01:30;;;;;;;;;;;11.90;90.00;;;;;;5041198;28;19999;-75
2021/11/07 13:04:00;;;;;;;;;;;11.90;90.20;;;;;;5036232;28;20323;-77
2021/11/07 13:06:33;;;;;;;;;;;11.80;90.50;;;;;;5053663;28;20109;-79
2021/11/07 13:09:02;;;;;;;;;;;11.90;90.70;;;;;;5044957;28;20380;-76
2021/11/07 13:11:37;;;;;;;;;;;11.70;90.60;;;;;;5036842;28;20299;-78
2021/11/07 13:14:11;;;;;;;;;;;11.80;91.40;;;;;;5036303;28;19936;-78
2021/11/07 13:16:53;;;;;;;;;;;11.70;91.20;;;;;;5042736;28;19924;-75
2021/11/07 13:19:39;;;;;;;;;;;11.60;91.60;;;;;;5038985;28;20027;-77
2021/11/07 13:22:26;;;;;;;;;;;11.50;91.70;;;;;;5046348;28;19925;-74
2021/11/07 13:25:09;;;;;;;;;;;11.50;91.70;;;;;;5038354;28;19925;-74
2021/11/07 13:27:43;;;;;;;;;;;11.70;91.20;;;;;;5037044;28;19932;-75
2021/11/07 13:30:15;;;;;;;;;;;11.90;91.10;;;;;;5040446;28;19941;-75
2021/11/07 13:32:43;;;;;;;;;;;12.00;90.50;;;;;;5048654;28;19932;-76
2021/11/07 13:35:11;;;;;;;;;;;12.20;90.40;;;;;;5042060;28;19925;-75
2021/11/07 13:37:41;;;;;;;;;;;12.50;90.00;;;;;;5035709;28;20381;-75
2021/11/07 13:40:10;;;;;;;;;;;12.40;88.60;;;;;;5039491;28;19987;-75
2021/11/07 13:42:38;;;;;;;;;;;12.30;88.40;;;;;;5043743;28;19925;-76
2021/11/07 13:45:06;;;;;;;;;;;12.30;88.80;;;;;;5049812;28;19976;-80
2021/11/07 13:47:38;;;;;;;;;;;12.40;89.30;;;;;;5036903;28;19924;-76
2021/11/07 13:50:09;;;;;;;;;;;12.40;88.70;;;;;;5037909;28;19925;-75
2021/11/07 13:52:37;;;;;;;;;;;12.20;88.10;;;;;;5042234;28;20362;-75
2021/11/07 13:55:12;;;;;;;;;;;12.10;88.70;;;;;;5040800;28;19936;-74
2021/11/07 13:57:39;;;;;;;;;;;12.00;88.80;;;;;;5034685;28;19952;-78
2021/11/07 14:00:07;;;;;;;;;;;12.10;90.50;;;;;;5037916;28;19931;-77
2021/11/07 14:02:34;;;;;;;;;;;12.00;89.70;;;;;;5044015;28;20011;-81
2021/11/07 14:05:01;;;;;;;;;;;11.80;90.70;;;;;;5040969;28;20494;-78
2021/11/07 14:07:29;;;;;;;;;;;11.90;90.50;;;;;;5039378;28;20052;-76
2021/11/07 14:09:57;;;;;;;;;;;11.80;90.60;;;;;;5045229;28;19925;-75
2021/11/07 14:12:29;;;;;;;;;;;11.80;90.80;;;;;;5030754;28;20020;-77
2021/11/07 14:15:18;;;;;;;;;;;11.90;90.50;;;;;;5042155;28;20410;-76
2021/11/07 14:17:47;;;;;;;;;;;11.80;90.10;;;;;;5035943;28;19928;-76
2021/11/07 14:20:14;;;;;;;;;;;11.70;90.10;;;;;;5043869;28;19925;-77
2021/11/07 14:25:46;;;;;;;;;;;11.60;90.30;;;;;;5101273;27;20389;-78
2021/11/07 14:28:20;;;;;;;;;;;11.60;90.60;;;;;;5102297;28;19924;-77
2021/11/07 14:30:47;;;;;;;;;;;11.50;90.30;;;;;;5089108;28;19939;-76
2021/11/07 14:33:22;;;;;;;;;;;11.50;90.40;;;;;;5095789;28;20026;-78
2021/11/07 14:35:50;;;;;;;;;;;11.50;91.10;;;;;;5098100;28;19928;-78
2021/11/07 14:38:21;;;;;;;;;;;11.40;90.70;;;;;;5094272;28;20057;-80
2021/11/07 14:40:57;;;;;;;;;;;11.40;90.80;;;;;;5089351;28;19924;-81
2021/11/07 14:43:37;;;;;;;;;;;11.40;91.40;;;;;;5096357;28;19957;-79
2021/11/07 14:46:11;;;;;;;;;;;11.40;91.50;;;;;;5099357;28;19977;-78
2021/11/07 14:48:50;;;;;;;;;;;11.40;91.80;;;;;;5098434;28;20252;-79
2021/11/07 14:54:07;;;;;;;;;;;11.30;92.10;;;;;;5078640;28;19947;-80
2021/11/07 14:56:43;;;;;;;;;;;11.40;92.60;;;;;;5106093;28;19928;-78
2021/11/07 14:59:16;;;;;;;;;;;11.40;92.90;;;;;;5098529;28;19945;-77
2021/11/07 15:01:44;;;;;;;;;;;11.30;92.80;;;;;;5115485;28;19963;-80
2021/11/07 15:04:16;;;;;;;;;;;11.20;93.10;;;;;;5102126;28;19923;-79
2021/11/07 15:06:55;;;;;;;;;;;11.20;93.40;;;;;;5103397;27;19964;-78
2021/11/07 15:09:26;;;;;;;;;;;11.20;93.60;;;;;;5091058;28;20472;-80
2021/11/07 15:12:21;;;;;;;;;;;11.20;93.70;;;;;;5099796;28;19931;-77
2021/11/07 15:18:00;;;;;;;;;;;11.10;94.10;;;;;;5094178;28;20041;-80
2021/11/07 15:20:31;;;;;;;;;;;11.00;94.30;;;;;;5101065;28;19924;-78
2021/11/07 15:22:59;;;;;;;;;;;11.00;94.50;;;;;;5088284;28;20036;-77
2021/11/07 15:25:29;;;;;;;;;;;11.00;94.70;;;;;;5112063;27;20438;-79